createdAt,value
2022-12-29T00:00:54.001Z,95368
2022-12-29T00:02:03.676Z,95369
2022-12-29T00:03:13.528Z,95367
2022-12-29T00:04:24.145Z,95370
2022-12-29T00:05:33.904Z,95366
2022-12-29T00:06:42.766Z,95358
2022-12-29T00:07:52.436Z,95354
2022-12-29T00:09:02.162Z,95356
2022-12-29T00:10:11.955Z,95362
2022-12-29T00:11:21.721Z,95356
2022-12-29T00:12:31.532Z,95354
2022-12-29T00:13:41.281Z,95357
2022-12-29T00:14:51.022Z,95355
2022-12-29T00:16:00.883Z,95356
2022-12-29T00:17:10.531Z,95352
2022-12-29T00:18:21.323Z,95358
2022-12-29T00:19:30.055Z,95359
2022-12-29T00:20:39.794Z,95359
2022-12-29T00:21:48.525Z,95354
2022-12-29T00:22:58.281Z,95351
2022-12-29T00:24:08.040Z,95346
2022-12-29T00:25:16.799Z,95350
2022-12-29T00:26:26.557Z,95349
2022-12-29T00:27:36.375Z,95348
2022-12-29T00:28:45.098Z,95351
2022-12-29T00:29:54.909Z,95342
2022-12-29T00:31:04.736Z,95340
2022-12-29T00:32:14.380Z,95345
2022-12-29T00:33:24.113Z,95340
2022-12-29T00:34:32.826Z,95344
2022-12-29T00:35:42.630Z,95342
2022-12-29T00:36:52.385Z,95340
2022-12-29T00:38:02.154Z,95341
2022-12-29T00:39:11.923Z,95342
2022-12-29T00:40:21.645Z,95340
2022-12-29T00:41:31.446Z,95339
2022-12-29T00:42:41.203Z,95339
2022-12-29T00:43:50.929Z,95343
2022-12-29T00:44:59.690Z,95336
2022-12-29T00:46:12.944Z,95336
2022-12-29T00:47:20.227Z,95342
2022-12-29T00:48:30.014Z,95337
2022-12-29T00:49:39.766Z,95334
2022-12-29T00:50:49.544Z,95333
2022-12-29T00:51:59.305Z,95335
2022-12-29T00:53:09.074Z,95330
2022-12-29T00:54:18.826Z,95336
2022-12-29T00:55:27.566Z,95333
2022-12-29T00:56:37.326Z,95334
2022-12-29T00:57:47.090Z,95334
2022-12-29T00:58:56.866Z,95339
2022-12-29T01:00:05.601Z,95335
2022-12-29T01:01:15.406Z,95342
2022-12-29T01:02:25.227Z,95343
2022-12-29T01:03:34.821Z,95346
2022-12-29T01:04:44.621Z,95338
2022-12-29T01:05:54.361Z,95336
2022-12-29T01:07:04.163Z,95339
2022-12-29T01:08:13.958Z,95340
2022-12-29T01:09:23.681Z,95344
2022-12-29T01:10:33.492Z,95345
2022-12-29T01:11:41.247Z,95344
2022-12-29T01:12:50.998Z,95343
2022-12-29T01:13:59.747Z,95347
2022-12-29T01:15:09.511Z,95343
2022-12-29T01:16:19.340Z,95343
2022-12-29T01:17:28.089Z,95347
2022-12-29T01:18:37.851Z,95346
2022-12-29T01:19:47.577Z,95338
2022-12-29T01:20:57.349Z,95340
2022-12-29T01:22:06.101Z,95340
2022-12-29T01:23:15.833Z,95341
2022-12-29T01:24:25.560Z,95346
2022-12-29T01:25:35.325Z,95342
2022-12-29T01:26:44.029Z,95351
2022-12-29T01:27:53.779Z,95349
2022-12-29T01:29:03.503Z,95348
2022-12-29T01:30:13.269Z,95346
2022-12-29T01:31:23.070Z,95347
2022-12-29T01:32:32.768Z,95351
2022-12-29T01:33:41.582Z,95346
2022-12-29T01:34:51.385Z,95349
2022-12-29T01:36:01.160Z,95350
2022-12-29T01:37:10.922Z,95349
2022-12-29T01:38:20.633Z,95352
2022-12-29T01:39:30.485Z,95352
2022-12-29T01:40:40.234Z,95350
2022-12-29T01:41:50.065Z,95349
2022-12-29T01:42:59.807Z,95350
2022-12-29T01:44:08.562Z,95346
2022-12-29T01:45:18.358Z,95343
2022-12-29T01:46:28.141Z,95356
2022-12-29T01:47:37.889Z,95347
2022-12-29T01:48:47.669Z,95345
2022-12-29T01:49:57.435Z,95347
2022-12-29T01:51:07.218Z,95347
2022-12-29T01:52:16.989Z,95355
2022-12-29T01:53:26.793Z,95349
2022-12-29T01:54:36.513Z,95348
2022-12-29T01:55:46.269Z,95349
2022-12-29T01:56:55.067Z,95355
2022-12-29T01:58:04.869Z,95349
2022-12-29T01:59:14.617Z,95348
2022-12-29T02:00:24.378Z,95350
2022-12-29T02:01:34.303Z,95347
2022-12-29T02:02:44.058Z,95341
2022-12-29T02:03:53.629Z,95339
2022-12-29T02:05:04.754Z,95341
2022-12-29T02:06:12.173Z,95337
2022-12-29T02:07:21.905Z,95336
2022-12-29T02:08:31.734Z,95336
2022-12-29T02:09:40.479Z,95339
2022-12-29T02:10:50.227Z,95335
2022-12-29T02:11:59.984Z,95338
2022-12-29T02:13:08.718Z,95337
2022-12-29T02:14:18.500Z,95331
2022-12-29T02:15:28.294Z,95337
2022-12-29T02:16:37.126Z,95338
2022-12-29T02:17:46.778Z,95336
2022-12-29T02:18:56.519Z,95335
2022-12-29T02:20:06.343Z,95332
2022-12-29T02:21:16.043Z,95326
2022-12-29T02:22:25.780Z,95328
2022-12-29T02:23:35.569Z,95327
2022-12-29T02:24:44.313Z,95336
2022-12-29T02:25:53.078Z,95336
2022-12-29T02:27:02.804Z,95338
2022-12-29T02:28:12.537Z,95338
2022-12-29T02:29:22.299Z,95342
2022-12-29T02:30:32.043Z,95343
2022-12-29T02:31:41.875Z,95339
2022-12-29T02:32:51.565Z,95346
2022-12-29T02:34:01.372Z,95337
2022-12-29T02:35:11.168Z,95339
2022-12-29T02:36:20.940Z,95337
2022-12-29T02:37:29.755Z,95332
2022-12-29T02:38:39.506Z,95336
2022-12-29T02:39:49.282Z,95339
2022-12-29T02:40:58.984Z,95341
2022-12-29T02:42:08.770Z,95339
2022-12-29T02:43:18.518Z,95334
2022-12-29T02:44:27.256Z,95337
2022-12-29T02:45:37.066Z,95338
2022-12-29T02:46:46.816Z,95339
2022-12-29T02:47:56.556Z,95327
2022-12-29T02:49:06.314Z,95335
2022-12-29T02:50:16.023Z,95332
2022-12-29T02:51:25.761Z,95334
2022-12-29T02:52:34.522Z,95332
2022-12-29T02:53:43.244Z,95338
2022-12-29T02:54:53.038Z,95331
2022-12-29T02:56:01.799Z,95325
2022-12-29T02:57:11.578Z,95332
2022-12-29T02:58:21.309Z,95330
2022-12-29T02:59:31.030Z,95331
2022-12-29T03:00:40.811Z,95333
2022-12-29T03:01:50.613Z,95327
2022-12-29T03:03:00.441Z,95322
2022-12-29T03:04:10.023Z,95323
2022-12-29T03:05:21.756Z,95325
2022-12-29T03:06:30.532Z,95320
2022-12-29T03:07:40.263Z,95322
2022-12-29T03:08:50.006Z,95316
2022-12-29T03:09:58.715Z,95315
2022-12-29T03:11:08.421Z,95320
2022-12-29T03:12:18.157Z,95313
2022-12-29T03:13:27.866Z,95317
2022-12-29T03:14:37.651Z,95320
2022-12-29T03:15:47.407Z,95316
2022-12-29T03:16:57.237Z,95316
2022-12-29T03:18:05.920Z,95313
2022-12-29T03:19:15.653Z,95306
2022-12-29T03:20:25.392Z,95314
2022-12-29T03:21:35.113Z,95306
2022-12-29T03:22:44.908Z,95310
2022-12-29T03:23:53.624Z,95308
2022-12-29T03:25:03.393Z,95305
2022-12-29T03:26:13.159Z,95308
2022-12-29T03:27:22.855Z,95304
2022-12-29T03:28:32.592Z,95306
2022-12-29T03:29:40.577Z,95299
2022-12-29T03:30:50.447Z,95297
2022-12-29T03:32:00.232Z,95295
2022-12-29T03:33:09.032Z,95290
2022-12-29T03:34:17.745Z,95292
2022-12-29T03:35:27.512Z,95290
2022-12-29T03:36:36.307Z,95286
2022-12-29T03:37:46.106Z,95291
2022-12-29T03:38:54.916Z,95288
2022-12-29T03:40:04.747Z,95289
2022-12-29T03:41:13.597Z,95287
2022-12-29T03:42:23.529Z,95291
2022-12-29T03:43:33.293Z,95293
2022-12-29T03:44:43.104Z,95287
2022-12-29T03:45:52.911Z,95282
2022-12-29T03:47:00.713Z,95285
2022-12-29T03:48:10.463Z,95289
2022-12-29T03:49:20.260Z,95289
2022-12-29T03:50:28.998Z,95288
2022-12-29T03:51:38.743Z,95292
2022-12-29T03:52:48.561Z,95286
2022-12-29T03:53:58.299Z,95294
2022-12-29T03:55:08.026Z,95294
2022-12-29T03:56:17.761Z,95294
2022-12-29T03:57:26.532Z,95293
2022-12-29T03:58:35.401Z,95289
2022-12-29T03:59:44.158Z,95297
2022-12-29T04:00:53.918Z,95293
2022-12-29T04:02:03.755Z,95289
2022-12-29T04:03:13.450Z,95287
2022-12-29T04:04:23.152Z,95284
2022-12-29T04:05:32.978Z,95292
2022-12-29T04:06:42.670Z,95292
2022-12-29T04:07:52.507Z,95292
2022-12-29T04:09:02.284Z,95293
2022-12-29T04:10:12.101Z,95299
2022-12-29T04:11:21.917Z,95298
2022-12-29T04:12:32.636Z,95294
2022-12-29T04:13:42.394Z,95295
2022-12-29T04:14:51.239Z,95293
2022-12-29T04:16:01.130Z,95296
2022-12-29T04:17:10.881Z,95288
2022-12-29T04:18:21.779Z,95293
2022-12-29T04:19:31.628Z,95290
2022-12-29T04:20:41.439Z,95289
2022-12-29T04:21:50.181Z,95287
2022-12-29T04:23:00.926Z,95292
2022-12-29T04:24:10.661Z,95289
2022-12-29T04:25:21.499Z,95288
2022-12-29T04:26:31.206Z,95289
2022-12-29T04:27:41.034Z,95297
2022-12-29T04:28:49.880Z,95293
2022-12-29T04:29:59.557Z,95296
2022-12-29T04:31:08.474Z,95295
2022-12-29T04:32:18.246Z,95291
2022-12-29T04:33:28.059Z,95283
2022-12-29T04:34:37.824Z,95288
2022-12-29T04:35:47.672Z,95294
2022-12-29T04:36:57.419Z,95293
2022-12-29T04:38:07.204Z,95288
2022-12-29T04:39:16.983Z,95282
2022-12-29T04:40:26.728Z,95280
2022-12-29T04:41:36.444Z,95286
2022-12-29T04:42:47.237Z,95282
2022-12-29T04:43:56.917Z,95281
2022-12-29T04:45:06.674Z,95282
2022-12-29T04:46:16.430Z,95280
2022-12-29T04:47:26.087Z,95278
2022-12-29T04:48:35.876Z,95277
2022-12-29T04:49:45.678Z,95275
2022-12-29T04:50:55.504Z,95274
2022-12-29T04:52:05.221Z,95274
2022-12-29T04:53:14.941Z,95278
2022-12-29T04:54:24.678Z,95276
2022-12-29T04:55:34.400Z,95271
2022-12-29T04:56:44.174Z,95275
2022-12-29T04:57:53.925Z,95267
2022-12-29T04:59:03.653Z,95271
2022-12-29T05:00:13.376Z,95271
2022-12-29T05:01:23.195Z,95268
2022-12-29T05:02:33.062Z,95269
2022-12-29T05:03:42.664Z,95263
2022-12-29T05:04:52.360Z,95267
2022-12-29T05:06:02.120Z,95270
2022-12-29T05:07:11.843Z,95272
2022-12-29T05:08:26.199Z,95275
2022-12-29T05:09:30.275Z,95275
2022-12-29T05:10:39.986Z,95272
2022-12-29T05:11:48.658Z,95278
2022-12-29T05:12:58.360Z,95283
2022-12-29T05:14:07.131Z,95281
2022-12-29T05:15:17.871Z,95281
2022-12-29T05:16:27.735Z,95276
2022-12-29T05:17:36.612Z,95276
2022-12-29T05:18:46.351Z,95277
2022-12-29T05:19:56.133Z,95273
2022-12-29T05:21:05.869Z,95282
2022-12-29T05:22:15.638Z,95274
2022-12-29T05:23:24.303Z,95280
2022-12-29T05:24:34.054Z,95284
2022-12-29T05:25:43.815Z,95279
2022-12-29T05:26:52.541Z,95284
2022-12-29T05:28:02.240Z,95281
2022-12-29T05:29:12.006Z,95282
2022-12-29T05:30:21.668Z,95292
2022-12-29T05:31:31.418Z,95282
2022-12-29T05:32:41.115Z,95281
2022-12-29T05:33:50.860Z,95279
2022-12-29T05:35:00.565Z,95286
2022-12-29T05:36:10.299Z,95287
2022-12-29T05:37:21.007Z,95277
2022-12-29T05:38:30.698Z,95287
2022-12-29T05:39:40.414Z,95287
2022-12-29T05:40:50.148Z,95285
2022-12-29T05:41:58.865Z,95290
2022-12-29T05:43:08.665Z,95288
2022-12-29T05:44:17.364Z,95287
2022-12-29T05:45:27.017Z,95281
2022-12-29T05:46:36.724Z,95283
2022-12-29T05:47:45.370Z,95280
2022-12-29T05:48:55.091Z,95285
2022-12-29T05:50:05.814Z,95281
2022-12-29T05:51:15.654Z,95288
2022-12-29T05:52:25.305Z,95283
2022-12-29T05:53:34.033Z,95276
2022-12-29T05:54:43.793Z,95279
2022-12-29T05:55:53.571Z,95275
2022-12-29T05:57:03.291Z,95275
2022-12-29T05:58:12.026Z,95270
2022-12-29T05:59:21.720Z,95277
2022-12-29T06:00:31.472Z,95275
2022-12-29T06:01:41.337Z,95276
2022-12-29T06:02:50.168Z,95272
2022-12-29T06:03:59.786Z,95268
2022-12-29T06:05:09.403Z,95270
2022-12-29T06:06:18.235Z,95278
2022-12-29T06:07:27.921Z,95287
2022-12-29T06:08:37.658Z,95285
2022-12-29T06:09:47.425Z,95277
2022-12-29T06:10:57.096Z,95274
2022-12-29T06:12:05.868Z,95274
2022-12-29T06:13:15.647Z,95276
2022-12-29T06:14:25.371Z,95283
2022-12-29T06:15:34.122Z,95279
2022-12-29T06:16:43.977Z,95286
2022-12-29T06:17:52.556Z,95283
2022-12-29T06:19:02.335Z,95270
2022-12-29T06:20:12.024Z,95268
2022-12-29T06:21:20.782Z,95270
2022-12-29T06:22:29.458Z,95284
2022-12-29T06:23:39.142Z,95285
2022-12-29T06:24:47.818Z,95284
2022-12-29T06:25:57.536Z,95280
2022-12-29T06:27:07.279Z,95284
2022-12-29T06:28:16.000Z,95280
2022-12-29T06:29:25.729Z,95282
2022-12-29T06:30:35.451Z,95279
2022-12-29T06:31:45.214Z,95279
2022-12-29T06:32:54.909Z,95281
2022-12-29T06:34:08.041Z,95283
2022-12-29T06:35:12.370Z,95287
2022-12-29T06:36:22.165Z,95289
2022-12-29T06:37:31.856Z,95284
2022-12-29T06:38:41.586Z,95284
2022-12-29T06:39:50.382Z,95281
2022-12-29T06:41:00.156Z,95279
2022-12-29T06:42:09.957Z,95285
2022-12-29T06:43:19.825Z,95282
2022-12-29T06:44:29.603Z,95282
2022-12-29T06:45:39.404Z,95282
2022-12-29T06:46:48.111Z,95286
2022-12-29T06:47:57.841Z,95284
2022-12-29T06:49:06.567Z,95282
2022-12-29T06:50:15.289Z,95284
2022-12-29T06:51:25.004Z,95286
2022-12-29T06:52:33.804Z,95288
2022-12-29T06:53:43.424Z,95289
2022-12-29T06:54:52.255Z,95290
2022-12-29T06:56:00.947Z,95284
2022-12-29T06:57:10.647Z,95287
2022-12-29T06:58:21.322Z,95288
2022-12-29T06:59:31.062Z,95291
2022-12-29T07:00:40.898Z,95289
2022-12-29T07:01:50.946Z,95292
2022-12-29T07:03:00.799Z,95290
2022-12-29T07:04:09.353Z,95290
2022-12-29T07:05:19.060Z,95296
2022-12-29T07:06:28.887Z,95301
2022-12-29T07:07:37.672Z,95298
2022-12-29T07:08:47.669Z,95293
2022-12-29T07:09:57.368Z,95296
2022-12-29T07:11:07.100Z,95300
2022-12-29T07:12:16.861Z,95300
2022-12-29T07:13:26.641Z,95297
2022-12-29T07:14:40.829Z,95293
2022-12-29T07:15:46.176Z,95293
2022-12-29T07:16:54.073Z,95296
2022-12-29T07:18:03.766Z,95302
2022-12-29T07:19:13.521Z,95300
2022-12-29T07:20:26.906Z,95301
2022-12-29T07:21:32.449Z,95307
2022-12-29T07:22:42.216Z,95304
2022-12-29T07:23:50.976Z,95311
2022-12-29T07:25:00.813Z,95313
2022-12-29T07:26:08.463Z,95317
2022-12-29T07:27:18.170Z,95319
2022-12-29T07:28:26.845Z,95315
2022-12-29T07:29:34.598Z,95319
2022-12-29T07:30:44.426Z,95319
2022-12-29T07:31:54.225Z,95327
2022-12-29T07:33:02.857Z,95323
2022-12-29T07:34:11.616Z,95328
2022-12-29T07:35:21.299Z,95332
2022-12-29T07:36:34.300Z,95334
2022-12-29T07:37:40.703Z,95335
2022-12-29T07:38:49.452Z,95328
2022-12-29T07:39:59.145Z,95324
2022-12-29T07:41:09.894Z,95333
2022-12-29T07:42:18.591Z,95330
2022-12-29T07:43:28.320Z,95338
2022-12-29T07:44:38.155Z,95334
2022-12-29T07:45:48.080Z,95333
2022-12-29T07:46:58.881Z,95333
2022-12-29T07:48:07.700Z,95334
2022-12-29T07:49:17.532Z,95335
2022-12-29T07:50:27.275Z,95335
2022-12-29T07:51:36.142Z,95339
2022-12-29T07:52:44.880Z,95337
2022-12-29T07:53:54.674Z,95340
2022-12-29T07:55:03.560Z,95345
2022-12-29T07:56:13.306Z,95339
2022-12-29T07:57:26.518Z,95337
2022-12-29T07:58:33.655Z,95339
2022-12-29T07:59:41.399Z,95337
2022-12-29T08:00:51.140Z,95332
2022-12-29T08:02:01.182Z,95326
2022-12-29T08:03:09.798Z,95323
2022-12-29T08:04:19.691Z,95335
2022-12-29T08:05:29.449Z,95331
2022-12-29T08:06:39.181Z,95332
2022-12-29T08:07:48.984Z,95337
2022-12-29T08:08:57.729Z,95339
2022-12-29T08:10:08.521Z,95342
2022-12-29T08:11:18.297Z,95341
2022-12-29T08:12:28.085Z,95343
2022-12-29T08:13:37.881Z,95345
2022-12-29T08:14:47.911Z,95346
2022-12-29T08:15:56.736Z,95340
2022-12-29T08:17:06.532Z,95347
2022-12-29T08:18:16.334Z,95349
2022-12-29T08:19:26.078Z,95348
2022-12-29T08:20:34.839Z,95349
2022-12-29T08:21:44.611Z,95351
2022-12-29T08:22:54.308Z,95352
2022-12-29T08:24:03.106Z,95348
2022-12-29T08:25:12.959Z,95346
2022-12-29T08:26:22.660Z,95349
2022-12-29T08:27:32.384Z,95348
2022-12-29T08:28:42.136Z,95355
2022-12-29T08:29:50.960Z,95347
2022-12-29T08:31:00.765Z,95342
2022-12-29T08:32:10.437Z,95350
2022-12-29T08:33:18.154Z,95348
2022-12-29T08:34:27.869Z,95353
2022-12-29T08:35:37.624Z,95346
2022-12-29T08:36:47.388Z,95351
2022-12-29T08:37:57.119Z,95343
2022-12-29T08:39:05.862Z,95339
2022-12-29T08:40:15.600Z,95341
2022-12-29T08:41:25.310Z,95341
2022-12-29T08:42:35.125Z,95344
2022-12-29T08:43:44.895Z,95339
2022-12-29T08:44:54.637Z,95344
2022-12-29T08:46:04.397Z,95342
2022-12-29T08:47:14.159Z,95345
2022-12-29T08:48:23.898Z,95351
2022-12-29T08:49:33.638Z,95346
2022-12-29T08:50:43.389Z,95348
2022-12-29T08:51:51.156Z,95342
2022-12-29T08:53:00.911Z,95350
2022-12-29T08:54:10.662Z,95351
2022-12-29T08:55:20.489Z,95343
2022-12-29T08:56:29.189Z,95336
2022-12-29T08:57:38.912Z,95343
2022-12-29T08:58:48.663Z,95349
2022-12-29T08:59:58.448Z,95353
2022-12-29T09:01:08.234Z,95352
2022-12-29T09:02:23.796Z,95362
2022-12-29T09:04:38.356Z,95353
2022-12-29T09:05:48.064Z,95360
2022-12-29T09:06:58.767Z,95356
2022-12-29T09:08:08.513Z,95357
2022-12-29T09:09:18.248Z,95363
2022-12-29T09:10:27.967Z,95357
2022-12-29T09:11:36.764Z,95362
2022-12-29T09:12:46.490Z,95362
2022-12-29T09:13:56.286Z,95361
2022-12-29T09:15:06.006Z,95361
2022-12-29T09:16:15.772Z,95362
2022-12-29T09:17:24.507Z,95367
2022-12-29T09:18:34.244Z,95364
2022-12-29T09:19:44.085Z,95365
2022-12-29T09:20:53.785Z,95368
2022-12-29T09:22:03.507Z,95373
2022-12-29T09:23:13.282Z,95362
2022-12-29T09:24:23.011Z,95364
2022-12-29T09:25:32.774Z,95365
2022-12-29T09:26:46.915Z,95367
2022-12-29T09:27:52.216Z,95369
2022-12-29T09:29:00.965Z,95372
2022-12-29T09:30:10.721Z,95377
2022-12-29T09:31:20.477Z,95378
2022-12-29T09:32:33.804Z,95380
2022-12-29T09:33:40.929Z,95378
2022-12-29T09:34:49.675Z,95375
2022-12-29T09:35:59.414Z,95374
2022-12-29T09:37:08.015Z,95373
2022-12-29T09:38:16.697Z,95372
2022-12-29T09:39:26.435Z,95370
2022-12-29T09:40:36.238Z,95372
2022-12-29T09:41:45.966Z,95372
2022-12-29T09:42:55.743Z,95372
2022-12-29T09:44:05.495Z,95373
2022-12-29T09:45:16.259Z,95370
2022-12-29T09:46:26.339Z,95368
2022-12-29T09:47:36.050Z,95367
2022-12-29T09:48:45.764Z,95362
2022-12-29T09:49:54.535Z,95359
2022-12-29T09:51:04.300Z,95360
2022-12-29T09:52:14.614Z,95359
2022-12-29T09:53:24.353Z,95350
2022-12-29T09:54:33.092Z,95349
2022-12-29T09:55:42.800Z,95347
2022-12-29T09:56:51.433Z,95349
2022-12-29T09:58:00.150Z,95346
2022-12-29T09:59:07.781Z,95345
2022-12-29T10:00:16.445Z,95345
2022-12-29T10:01:26.223Z,95340
2022-12-29T10:02:34.940Z,95343
2022-12-29T10:03:43.465Z,95338
2022-12-29T10:04:52.133Z,95338
2022-12-29T10:06:00.927Z,95339
2022-12-29T10:07:28.896Z,95339
2022-12-29T10:08:21.413Z,95330
2022-12-29T10:09:31.180Z,95334
2022-12-29T10:10:40.899Z,95336
2022-12-29T10:11:49.652Z,95332
2022-12-29T10:12:58.408Z,95335
2022-12-29T10:14:12.303Z,95323
2022-12-29T10:15:18.878Z,95316
2022-12-29T10:16:28.660Z,95319
2022-12-29T10:17:38.377Z,95326
2022-12-29T10:18:48.122Z,95329
2022-12-29T10:19:57.854Z,95326
2022-12-29T10:21:07.663Z,95332
2022-12-29T10:22:17.376Z,95324
2022-12-29T10:23:27.130Z,95324
2022-12-29T10:24:35.847Z,95314
2022-12-29T10:25:45.507Z,95317
2022-12-29T10:26:54.265Z,95312
2022-12-29T10:28:03.931Z,95319
2022-12-29T10:29:13.633Z,95315
2022-12-29T10:30:23.409Z,95318
2022-12-29T10:31:33.221Z,95324
2022-12-29T10:32:42.942Z,95324
2022-12-29T10:33:52.681Z,95325
2022-12-29T10:35:02.352Z,95333
2022-12-29T10:36:11.121Z,95329
2022-12-29T10:37:20.885Z,95324
2022-12-29T10:38:31.513Z,95328
2022-12-29T10:39:40.293Z,95332
2022-12-29T10:40:49.040Z,95331
2022-12-29T10:41:59.160Z,95329
2022-12-29T10:43:09.029Z,95320
2022-12-29T10:44:19.765Z,95323
2022-12-29T10:45:28.505Z,95334
2022-12-29T10:46:38.246Z,95324
2022-12-29T10:47:49.109Z,95323
2022-12-29T10:48:56.887Z,95318
2022-12-29T10:50:05.617Z,95319
2022-12-29T10:51:15.369Z,95318
2022-12-29T10:52:25.087Z,95310
2022-12-29T10:53:35.039Z,95311
2022-12-29T10:54:43.740Z,95303
2022-12-29T10:55:52.416Z,95308
2022-12-29T10:57:02.242Z,95301
2022-12-29T10:58:10.933Z,95299
2022-12-29T10:59:20.541Z,95295
2022-12-29T11:00:29.289Z,95299
2022-12-29T11:01:39.128Z,95297
2022-12-29T11:02:48.868Z,95293
2022-12-29T11:03:58.466Z,95296
2022-12-29T11:05:07.136Z,95289
2022-12-29T11:06:16.807Z,95293
2022-12-29T11:07:27.648Z,95283
2022-12-29T11:08:36.429Z,95277
2022-12-29T11:09:45.169Z,95283
2022-12-29T11:10:54.899Z,95281
2022-12-29T11:12:04.653Z,95275
2022-12-29T11:13:14.451Z,95272
2022-12-29T11:14:24.190Z,95278
2022-12-29T11:15:33.926Z,95280
2022-12-29T11:16:43.710Z,95280
2022-12-29T11:17:52.408Z,95281
2022-12-29T11:19:02.209Z,95283
2022-12-29T11:20:11.924Z,95282
2022-12-29T11:21:21.671Z,95275
2022-12-29T11:22:29.462Z,95283
2022-12-29T11:23:39.229Z,95290
2022-12-29T11:24:49.081Z,95280
2022-12-29T11:25:58.824Z,95282
2022-12-29T11:27:08.649Z,95278
2022-12-29T11:28:18.296Z,95271
2022-12-29T11:29:27.032Z,95273
2022-12-29T11:30:36.807Z,95268
2022-12-29T11:31:45.659Z,95266
2022-12-29T11:32:55.307Z,95273
2022-12-29T11:34:05.066Z,95271
2022-12-29T11:35:14.817Z,95270
2022-12-29T11:36:24.605Z,95269
2022-12-29T11:37:32.323Z,95265
2022-12-29T11:38:42.073Z,95262
2022-12-29T11:39:50.899Z,95258
2022-12-29T11:41:00.621Z,95260
2022-12-29T11:42:10.484Z,95270
2022-12-29T11:43:20.352Z,95252
2022-12-29T11:44:30.035Z,95255
2022-12-29T11:45:39.855Z,95254
2022-12-29T11:46:49.574Z,95260
2022-12-29T11:47:59.362Z,95259
2022-12-29T11:49:09.160Z,95262
2022-12-29T11:50:18.916Z,95263
2022-12-29T11:51:28.705Z,95257
2022-12-29T11:52:39.422Z,95259
2022-12-29T11:53:49.280Z,95263
2022-12-29T11:55:00.019Z,95257
2022-12-29T11:56:08.764Z,95251
2022-12-29T11:57:18.525Z,95254
2022-12-29T11:58:28.312Z,95256
2022-12-29T11:59:38.072Z,95255
2022-12-29T12:00:47.860Z,95263
2022-12-29T12:01:57.614Z,95261
2022-12-29T12:03:07.457Z,95256
2022-12-29T12:04:17.172Z,95260
2022-12-29T12:05:25.891Z,95258
2022-12-29T12:06:35.614Z,95257
2022-12-29T12:07:45.358Z,95258
2022-12-29T12:08:54.096Z,95259
2022-12-29T12:10:07.695Z,95258
2022-12-29T12:11:13.631Z,95259
2022-12-29T12:12:23.412Z,95257
2022-12-29T12:13:34.169Z,95263
2022-12-29T12:14:43.861Z,95248
2022-12-29T12:15:56.540Z,95256
2022-12-29T12:17:03.410Z,95257
2022-12-29T12:18:13.165Z,95253
2022-12-29T12:19:22.918Z,95255
2022-12-29T12:20:32.652Z,95247
2022-12-29T12:21:45.653Z,95248
2022-12-29T12:22:52.157Z,95246
2022-12-29T12:24:01.871Z,95246
2022-12-29T12:25:11.644Z,95249
2022-12-29T12:26:21.378Z,95251
2022-12-29T12:27:31.106Z,95236
2022-12-29T12:28:40.885Z,95240
2022-12-29T12:29:50.594Z,95231
2022-12-29T12:31:00.340Z,95225
2022-12-29T12:32:10.071Z,95231
2022-12-29T12:33:19.876Z,95237
2022-12-29T12:34:29.715Z,95225
2022-12-29T12:35:39.577Z,95220
2022-12-29T12:36:49.428Z,95222
2022-12-29T12:37:59.172Z,95219
2022-12-29T12:39:08.911Z,95219
2022-12-29T12:40:18.687Z,95236
2022-12-29T12:41:27.401Z,95222
2022-12-29T12:42:36.104Z,95222
2022-12-29T12:43:45.903Z,95223
2022-12-29T12:44:55.615Z,95224
2022-12-29T12:46:05.405Z,95224
2022-12-29T12:47:15.110Z,95226
2022-12-29T12:48:24.849Z,95227
2022-12-29T12:49:34.590Z,95226
2022-12-29T12:50:44.320Z,95221
2022-12-29T12:51:56.120Z,95219
2022-12-29T12:53:04.847Z,95220
2022-12-29T12:54:13.573Z,95220
2022-12-29T12:55:23.256Z,95217
2022-12-29T12:56:32.950Z,95216
2022-12-29T12:57:41.625Z,95212
2022-12-29T12:58:51.382Z,95220
2022-12-29T13:00:01.077Z,95224
2022-12-29T13:01:10.855Z,95233
2022-12-29T13:02:20.758Z,95219
2022-12-29T13:03:30.309Z,95214
2022-12-29T13:04:38.991Z,95220
2022-12-29T13:05:48.729Z,95220
2022-12-29T13:06:58.481Z,95217
2022-12-29T13:08:08.190Z,95212
2022-12-29T13:09:17.953Z,95209
2022-12-29T13:10:27.675Z,95212
2022-12-29T13:11:37.420Z,95218
2022-12-29T13:12:46.145Z,95220
2022-12-29T13:13:55.938Z,95223
2022-12-29T13:15:05.659Z,95220
2022-12-29T13:16:15.382Z,95225
2022-12-29T13:17:24.138Z,95219
2022-12-29T13:18:33.895Z,95219
2022-12-29T13:19:43.702Z,95212
2022-12-29T13:20:52.403Z,95214
2022-12-29T13:22:06.496Z,95220
2022-12-29T13:23:10.860Z,95216
2022-12-29T13:24:20.657Z,95216
2022-12-29T13:25:29.523Z,95209
2022-12-29T13:26:39.292Z,95206
2022-12-29T13:27:49.007Z,95209
2022-12-29T13:28:58.780Z,95203
2022-12-29T13:30:08.482Z,95211
2022-12-29T13:31:18.303Z,95208
2022-12-29T13:32:27.985Z,95212
2022-12-29T13:33:36.725Z,95210
2022-12-29T13:34:46.453Z,95214
2022-12-29T13:35:56.179Z,95208
2022-12-29T13:37:05.912Z,95209
2022-12-29T13:38:14.691Z,95210
2022-12-29T13:39:24.429Z,95205
2022-12-29T13:40:34.167Z,95208
2022-12-29T13:41:43.994Z,95207
2022-12-29T13:42:53.726Z,95212
2022-12-29T13:44:03.522Z,95214
2022-12-29T13:45:13.274Z,95209
2022-12-29T13:46:23.057Z,95208
2022-12-29T13:47:31.821Z,95214
2022-12-29T13:48:41.577Z,95214
2022-12-29T13:49:49.390Z,95217
2022-12-29T13:50:58.110Z,95211
2022-12-29T13:52:07.849Z,95222
2022-12-29T13:53:16.570Z,95216
2022-12-29T13:54:26.301Z,95220
2022-12-29T13:55:36.117Z,95222
2022-12-29T13:56:45.922Z,95230
2022-12-29T13:57:55.666Z,95234
2022-12-29T13:59:04.424Z,95228
2022-12-29T14:00:13.295Z,95229
2022-12-29T14:01:23.358Z,95227
2022-12-29T14:02:33.461Z,95230
2022-12-29T14:03:43.178Z,95230
2022-12-29T14:04:50.870Z,95228
2022-12-29T14:06:00.753Z,95229
2022-12-29T14:07:10.548Z,95224
2022-12-29T14:08:20.465Z,95223
2022-12-29T14:09:35.086Z,95228
2022-12-29T14:10:39.970Z,95221
2022-12-29T14:11:49.799Z,95224
2022-12-29T14:12:59.559Z,95225
2022-12-29T14:14:08.377Z,95227
2022-12-29T14:15:18.630Z,95226
2022-12-29T14:16:28.396Z,95227
2022-12-29T14:17:37.063Z,95230
2022-12-29T14:18:46.831Z,95227
2022-12-29T14:19:56.552Z,95228
2022-12-29T14:21:06.737Z,95228
2022-12-29T14:22:16.937Z,95227
2022-12-29T14:23:27.872Z,95226
2022-12-29T14:24:35.869Z,95221
2022-12-29T14:25:45.536Z,95217
2022-12-29T14:26:54.319Z,95220
2022-12-29T14:28:04.528Z,95217
2022-12-29T14:29:13.958Z,95221
2022-12-29T14:30:24.453Z,95216
2022-12-29T14:31:34.203Z,95227
2022-12-29T14:32:42.966Z,95230
2022-12-29T14:33:52.772Z,95231
2022-12-29T14:35:02.522Z,95236
2022-12-29T14:36:11.325Z,95235
2022-12-29T14:37:21.196Z,95230
2022-12-29T14:38:31.012Z,95234
2022-12-29T14:39:40.888Z,95238
2022-12-29T14:40:50.655Z,95237
2022-12-29T14:42:00.512Z,95236
2022-12-29T14:43:09.331Z,95230
2022-12-29T14:44:19.619Z,95232
2022-12-29T14:45:28.524Z,95234
2022-12-29T14:46:42.734Z,95229
2022-12-29T14:47:48.329Z,95233
2022-12-29T14:48:57.113Z,95235
2022-12-29T14:50:06.885Z,95236
2022-12-29T14:51:15.758Z,95237
2022-12-29T14:52:25.514Z,95234
2022-12-29T14:53:35.333Z,95234
2022-12-29T14:54:45.070Z,95230
2022-12-29T14:55:54.776Z,95235
2022-12-29T14:57:04.490Z,95236